Time;durP1;ratioP1;P1;durP2;ratioP2;P2;SDS_P1;SDS_P2;PMS_P1;PMS_P2;Temp;Humidity;BMP_temperature;BMP_pressure;BME280_temperature;BME280_humidity;BME280_pressure;Samples;Min_cycle;Max_cycle;Signal;HPM_P1;HPM_P2
2023/03/28 00:01:31;;;;;;;0.70;0.70;;;;;;;0.51;100.00;98340.44;4893177;29;20143;-93
2023/03/28 00:04:00;;;;;;;0.90;0.90;;;;;;;0.31;100.00;98329.72;4851093;29;20109;-92
2023/03/28 00:06:28;;;;;;;1.00;1.00;;;;;;;0.32;100.00;98362.38;4818498;29;20049;-91
2023/03/28 00:08:57;;;;;;;0.88;0.88;;;;;;;0.14;100.00;98344.28;4861239;29;20155;-89
2023/03/28 00:11:24;;;;;;;0.70;0.70;;;;;;;0.17;100.00;98354.50;4866940;29;20113;-91
2023/03/28 00:13:59;;;;;;;0.85;0.85;;;;;;;0.21;100.00;98363.72;4828491;29;20478;-90
2023/03/28 00:16:31;;;;;;;0.90;0.90;;;;;;;0.02;100.00;98361.75;4859748;29;20064;-92
2023/03/28 00:19:00;;;;;;;0.90;0.90;;;;;;;0.10;100.00;98369.56;4844300;29;20101;-90
2023/03/28 00:21:32;;;;;;;0.90;0.90;;;;;;;0.16;100.00;98366.97;4829354;29;20045;-90
2023/03/28 00:24:04;;;;;;;0.80;0.80;;;;;;;0.03;100.00;98364.22;4859281;29;20482;-90
2023/03/28 00:26:34;;;;;;;0.90;0.90;;;;;;;-0.01;100.00;98368.25;4828406;29;20135;-90
2023/03/28 00:29:04;;;;;;;0.70;0.70;;;;;;;-0.13;100.00;98361.81;4828421;29;20068;-90
2023/03/28 00:31:35;;;;;;;0.85;0.85;;;;;;;-0.23;100.00;98360.34;4844554;29;20054;-90
2023/03/28 00:34:02;;;;;;;1.00;1.00;;;;;;;-0.28;100.00;98375.16;4862953;29;20063;-90
2023/03/28 00:36:32;;;;;;;0.73;0.73;;;;;;;-0.27;100.00;98379.47;4900687;29;20059;-90
2023/03/28 00:39:04;;;;;;;0.90;0.90;;;;;;;-0.25;100.00;98388.88;4909325;29;20052;-92
2023/03/28 00:41:34;;;;;;;0.90;0.90;;;;;;;-0.32;100.00;98385.34;4913627;29;20057;-91
2023/03/28 00:44:39;;;;;;;0.80;0.80;;;;;;;-0.38;100.00;98383.47;4899370;29;20077;-90
2023/03/28 00:47:24;;;;;;;0.98;0.98;;;;;;;-0.59;100.00;98388.72;4932163;29;20059;-90
2023/03/28 00:50:04;;;;;;;;;;;;;;;-0.56;100.00;98407.72;4886030;29;20063;-90
2023/03/28 00:52:49;;;;;;;0.90;0.90;;;;;;;-0.33;100.00;98396.97;4917992;29;19975;-91
2023/03/28 00:55:21;;;;;;;0.90;0.90;;;;;;;-0.14;100.00;98390.19;4901717;29;20079;-87
2023/03/28 00:57:49;;;;;;;1.00;1.00;;;;;;;-0.24;100.00;98395.00;4900188;29;20048;-87
2023/03/28 01:00:17;;;;;;;0.95;0.95;;;;;;;-0.12;100.00;98403.28;4900117;29;20104;-87
2023/03/28 01:02:51;;;;;;;0.80;0.80;;;;;;;-0.20;100.00;98384.81;4916359;29;20054;-88
2023/03/28 01:05:22;;;;;;;0.73;0.73;;;;;;;-0.13;100.00;98405.09;4905063;29;20048;-87
2023/03/28 01:07:58;;;;;;;0.77;0.77;;;;;;;-0.18;100.00;98404.84;4903704;29;20052;-87
2023/03/28 01:10:25;;;;;;;0.90;0.90;;;;;;;-0.32;100.00;98385.34;4901164;29;20052;-87
2023/03/28 01:12:54;;;;;;;0.80;0.80;;;;;;;-0.39;100.00;98391.59;4900103;29;20055;-89
2023/03/28 01:15:25;;;;;;;0.90;0.90;;;;;;;-0.37;100.00;98413.44;4900392;29;20056;-89
2023/03/28 01:18:22;;;;;;;0.80;0.80;;;;;;;-0.38;100.00;98404.66;4886948;29;20055;-89
2023/03/28 01:21:08;;;;;;;0.80;0.80;;;;;;;-0.45;100.00;98407.25;4933429;29;20040;-85
2023/03/28 01:24:00;;;;;;;1.00;1.00;;;;;;;-0.44;100.00;98408.88;4906154;29;20056;-89
2023/03/28 01:27:06;;;;;;;1.00;1.00;;;;;;;-0.46;100.00;98395.00;4901827;29;20064;-89
2023/03/28 01:30:01;;;;;;;0.90;0.90;;;;;;;-0.70;100.00;98384.75;4900929;29;20068;-87
2023/03/28 01:33:08;;;;;;;0.90;0.90;;;;;;;-0.68;100.00;98396.00;4916689;29;20407;-88
2023/03/28 01:35:47;;;;;;;0.82;0.82;;;;;;;-0.79;100.00;98402.56;4900013;29;20510;-89
2023/03/28 01:38:27;;;;;;;1.00;1.00;;;;;;;-0.96;100.00;98401.16;4899433;29;20067;-88
2023/03/28 01:41:20;;;;;;;0.90;0.90;;;;;;;-1.04;100.00;98394.13;4915870;29;20056;-87
2023/03/28 01:44:00;;;;;;;0.90;0.90;;;;;;;-1.08;100.00;98400.81;4899369;29;20140;-90
2023/03/28 01:46:38;;;;;;;0.80;0.80;;;;;;;-1.13;100.00;98403.19;4884716;29;20052;-89
2023/03/28 01:49:43;;;;;;;0.80;0.80;;;;;;;-1.26;100.00;98408.31;4899118;29;20556;-88
2023/03/28 01:52:18;;;;;;;0.90;0.90;;;;;;;-1.44;100.00;98388.34;4872809;29;20164;-88
2023/03/28 01:55:16;;;;;;;0.90;0.90;;;;;;;-1.34;100.00;98407.41;4856669;29;20080;-88
2023/03/28 01:58:02;;;;;;;0.95;0.95;;;;;;;-1.47;100.00;98412.50;4843608;29;20149;-88
2023/03/28 02:00:44;;;;;;;0.95;0.95;;;;;;;-1.58;100.00;98403.19;4827976;29;20069;-89
2023/03/28 02:03:21;;;;;;;1.00;1.00;;;;;;;-1.57;100.00;98406.66;4841936;29;20058;-89
2023/03/28 02:05:54;;;;;;;0.80;0.80;;;;;;;-1.51;100.00;98416.53;4841798;29;20136;-88
2023/03/28 02:08:32;;;;;;;1.00;1.00;;;;;;;-1.53;100.00;98411.41;4826967;29;20060;-88
2023/03/28 02:11:29;;;;;;;1.00;1.00;;;;;;;-1.47;100.00;98411.69;4841863;29;20073;-88
2023/03/28 02:14:24;;;;;;;0.90;0.90;;;;;;;-1.68;100.00;98401.81;4856580;29;20101;-88
2023/03/28 02:17:03;;;;;;;0.90;0.90;;;;;;;-1.63;100.00;98396.81;4841503;29;20476;-88
2023/03/28 02:19:57;;;;;;;0.98;0.98;;;;;;;-1.40;100.00;98441.72;4829292;29;20120;-89
2023/03/28 02:22:58;;;;;;;0.90;0.90;;;;;;;-1.53;100.00;98440.50;4843898;29;20063;-87
2023/03/28 02:25:54;;;;;;;1.00;1.00;;;;;;;-1.71;100.00;98407.47;4820347;29;20478;-90
2023/03/28 02:28:56;;;;;;;1.00;1.00;;;;;;;-1.64;100.00;98442.81;4835567;29;20160;-89
2023/03/28 02:31:35;;;;;;;0.95;0.95;;;;;;;-1.84;100.00;98423.97;4862040;29;20057;-88
2023/03/28 02:34:03;;;;;;;0.88;0.88;;;;;;;-1.71;100.00;98434.75;4845056;29;20061;-88
2023/03/28 02:36:39;;;;;;;0.95;0.95;;;;;;;-1.48;100.00;98445.28;4845289;29;20060;-89
2023/03/28 02:39:25;;;;;;;0.93;0.93;;;;;;;-1.54;100.00;98446.00;4859736;29;20053;-87
2023/03/28 02:42:28;;;;;;;0.98;0.98;;;;;;;-1.71;100.00;98433.94;4829799;29;20165;-87
2023/03/28 02:45:08;;;;;;;0.88;0.88;;;;;;;-1.75;100.00;98449.31;4808626;29;20066;-88
2023/03/28 02:47:43;;;;;;;0.93;0.93;;;;;;;-1.79;100.00;98453.34;4810867;29;20585;-88
2023/03/28 02:50:22;;;;;;;0.85;0.85;;;;;;;-1.82;100.00;98451.88;4785992;29;20055;-89
2023/03/28 02:52:59;;;;;;;0.90;0.90;;;;;;;-1.85;100.00;98449.59;4786638;29;20051;-88
2023/03/28 02:55:43;;;;;;;1.00;1.00;;;;;;;-1.81;100.00;98450.06;4771510;29;20059;-88
2023/03/28 02:58:51;;;;;;;0.90;0.90;;;;;;;-1.76;100.00;98464.38;4779770;29;20059;-88
2023/03/28 03:01:18;;;;;;;0.80;0.80;;;;;;;-1.75;100.00;98459.91;4800188;29;20034;-88
2023/03/28 03:03:48;;;;;;;0.90;0.90;;;;;;;-1.85;100.00;98461.97;4856119;29;20056;-88
2023/03/28 03:06:19;;;;;;;0.90;0.90;;;;;;;-1.82;100.00;98478.34;4860960;29;20109;-89
2023/03/28 03:08:46;;;;;;;0.90;0.90;;;;;;;-1.84;100.00;98471.59;4878750;29;20060;-88
2023/03/28 03:11:13;;;;;;;0.95;0.95;;;;;;;-1.73;100.00;98483.56;4878469;29;20515;-88
2023/03/28 03:13:42;;;;;;;0.90;0.90;;;;;;;-1.84;100.00;98482.16;4878891;29;20369;-90
2023/03/28 03:16:10;;;;;;;0.80;0.80;;;;;;;-1.98;100.00;98467.88;4901519;29;20048;-88
2023/03/28 03:18:39;;;;;;;0.90;0.90;;;;;;;-1.88;100.00;98494.91;4901220;29;20052;-89
2023/03/28 03:21:06;;;;;;;1.00;1.00;;;;;;;-1.94;100.00;98471.81;4870678;29;20567;-90
2023/03/28 03:23:35;;;;;;;0.88;0.88;;;;;;;-1.88;100.00;98488.78;4920076;29;20056;-89
2023/03/28 03:26:05;;;;;;;0.90;0.90;;;;;;;-1.96;100.00;98476.47;4902161;29;20072;-89
2023/03/28 03:28:56;;;;;;;0.90;0.90;;;;;;;-1.84;100.00;98498.03;4902503;29;20048;-89
2023/03/28 03:31:25;;;;;;;1.00;1.00;;;;;;;-1.91;100.00;98484.69;4901421;29;20052;-88
2023/03/28 03:34:18;;;;;;;1.00;1.00;;;;;;;-1.76;100.00;98493.47;4917453;29;20056;-88
2023/03/28 03:37:01;;;;;;;0.90;0.90;;;;;;;-1.56;100.00;98511.53;4890583;29;20139;-90
2023/03/28 03:39:28;;;;;;;0.80;0.80;;;;;;;-1.50;100.00;98500.22;4903981;29;20052;-92
2023/03/28 03:41:55;;;;;;;1.00;1.00;;;;;;;-1.46;100.00;98482.16;4887217;29;20147;-94
2023/03/28 03:44:26;;;;;;;0.95;0.95;;;;;;;-1.48;100.00;98492.09;4885773;29;20048;-89
2023/03/28 03:46:54;;;;;;;0.80;0.80;;;;;;;-1.37;100.00;98504.88;4910569;29;20490;-91
2023/03/28 03:49:23;;;;;;;0.90;0.90;;;;;;;-1.51;100.00;98485.34;4909759;29;20056;-89
2023/03/28 03:51:52;;;;;;;1.00;1.00;;;;;;;-1.42;100.00;98484.28;4556609;29;10000434;-89
2023/03/28 03:54:19;;;;;;;0.90;0.90;;;;;;;-1.38;100.00;98488.19;4871405;29;20064;-86
2023/03/28 03:56:47;;;;;;;1.00;1.00;;;;;;;-1.26;100.00;98495.69;4894106;29;20085;-93
2023/03/28 03:59:19;;;;;;;1.00;1.00;;;;;;;-1.14;100.00;98505.66;4804748;29;20093;-88
2023/03/28 04:01:48;;;;;;;1.00;1.00;;;;;;;-1.12;100.00;98502.81;4839686;29;20058;-91
2023/03/28 04:04:18;;;;;;;1.00;1.00;;;;;;;-1.14;100.00;98488.94;4813363;29;20058;-93
2023/03/28 04:07:04;;;;;;;0.77;0.77;;;;;;;-1.07;100.00;98504.91;4813517;29;20471;-88
2023/03/28 04:09:38;;;;;;;0.88;0.88;;;;;;;-0.93;100.00;98512.06;4804777;29;20061;-93
2023/03/28 04:12:11;;;;;;;0.90;0.90;;;;;;;-1.04;100.00;98478.88;4806847;29;20054;-94
2023/03/28 04:14:45;;;;;;;0.90;0.90;;;;;;;-0.98;100.00;98478.16;4811045;29;20050;-93
2023/03/28 04:17:36;;;;;;;1.00;1.00;;;;;;;-0.81;100.00;98477.97;4821284;29;20070;-94
2023/03/28 04:20:12;;;;;;;0.90;0.90;;;;;;;-0.57;100.00;98506.00;4829534;29;20046;-94
2023/03/28 04:23:07;;;;;;;0.80;0.80;;;;;;;-0.36;100.00;98513.19;4839963;29;20057;-95
2023/03/28 04:25:49;;;;;;;1.10;1.10;;;;;;;-0.42;100.00;98495.38;4814900;29;20061;-94
2023/03/28 04:28:26;;;;;;;0.70;0.70;;;;;;;-0.35;100.00;98504.22;4812303;29;20154;-94
2023/03/28 04:31:03;;;;;;;0.80;0.80;;;;;;;-0.20;100.00;98512.97;4825807;29;20065;-92
2023/03/28 04:33:38;;;;;;;1.00;1.00;;;;;;;-0.13;100.00;98500.56;4873976;29;20092;-90
2023/03/28 04:36:08;;;;;;;0.80;0.80;;;;;;;-0.01;100.00;98501.72;4853722;29;20088;-94
2023/03/28 04:39:01;;;;;;;0.93;0.93;;;;;;;0.07;100.00;98492.00;4904453;29;20048;-93
2023/03/28 04:42:23;;;;;;;0.90;0.90;;;;;;;0.16;100.00;98475.78;4821432;29;20054;-93
2023/03/28 04:45:05;;;;;;;1.00;1.00;;;;;;;0.55;100.00;98516.13;4856551;29;20519;-92
2023/03/28 04:47:36;;;;;;;1.00;1.00;;;;;;;0.62;100.00;98523.13;4846871;29;20060;-92
2023/03/28 04:50:05;;;;;;;1.00;1.00;;;;;;;0.67;100.00;98509.25;4841365;29;20151;-91
2023/03/28 04:52:37;;;;;;;0.80;0.80;;;;;;;0.84;100.00;98515.94;4840854;29;20045;-89
2023/03/28 04:55:06;;;;;;;0.90;0.90;;;;;;;0.87;100.00;98498.78;4828121;29;20079;-92
2023/03/28 04:57:39;;;;;;;0.90;0.90;;;;;;;0.85;100.00;98485.69;4828280;29;20061;-90
2023/03/28 05:00:15;;;;;;;1.00;1.00;;;;;;;0.98;100.00;98500.88;4837312;29;20129;-95
2023/03/28 05:03:05;;;;;;;0.88;0.88;;;;;;;1.03;100.00;98489.69;4835896;29;20465;-92
2023/03/28 05:05:50;;;;;;;0.90;0.90;;;;;;;1.38;100.00;98510.94;4832041;29;20079;-91
2023/03/28 05:08:27;;;;;;;1.00;1.00;;;;;;;1.61;100.00;98507.94;4842409;29;20045;-92
2023/03/28 05:10:57;;;;;;;1.00;1.00;;;;;;;1.92;100.00;98539.38;4836670;29;20060;-93
2023/03/28 05:13:29;;;;;;;1.00;1.00;;;;;;;1.94;100.00;98516.84;4858696;29;20046;-92
2023/03/28 05:16:19;;;;;;;0.70;0.70;;;;;;;1.94;100.00;98510.72;4843827;29;20093;-91
2023/03/28 05:19:10;;;;;;;0.90;0.90;;;;;;;2.11;100.00;98529.81;4830471;29;20065;-92
2023/03/28 05:22:14;;;;;;;1.00;1.00;;;;;;;2.25;100.00;98546.63;4843651;29;20152;-91
2023/03/28 05:25:07;;;;;;;0.93;0.93;;;;;;;2.15;100.00;98521.22;4825955;29;20074;-94
2023/03/28 05:27:51;;;;;;;0.90;0.90;;;;;;;2.29;100.00;98523.91;4847366;29;20060;-94
2023/03/28 05:30:21;;;;;;;0.93;0.93;;;;;;;2.42;100.00;98523.91;4845956;29;20151;-91
2023/03/28 05:32:52;;;;;;;0.90;0.90;;;;;;;2.56;100.00;98524.75;4834715;29;20161;-94
2023/03/28 05:35:39;;;;;;;1.00;1.00;;;;;;;2.78;100.00;98534.16;4838497;29;20053;-94
2023/03/28 05:38:24;;;;;;;0.90;0.90;;;;;;;2.93;100.00;98544.59;4864192;29;20052;-95
2023/03/28 05:40:58;;;;;;;0.90;0.90;;;;;;;2.89;100.00;98518.59;4888970;29;20060;-92
2023/03/28 05:43:28;;;;;;;0.90;0.90;;;;;;;3.10;100.00;98533.53;4872161;29;20059;-91
2023/03/28 05:45:55;;;;;;;1.00;1.00;;;;;;;3.38;100.00;98555.41;4886642;29;20044;-94
2023/03/28 05:48:31;;;;;;;1.00;1.00;;;;;;;3.38;100.00;98550.06;4895209;29;20075;-93
2023/03/28 05:51:03;;;;;;;1.00;1.00;;;;;;;3.39;100.00;98529.53;4887145;29;20456;-92
2023/03/28 05:53:33;;;;;;;0.90;0.90;;;;;;;3.66;100.00;98559.63;4884838;29;20062;-93
2023/03/28 05:56:06;;;;;;;1.00;1.00;;;;;;;3.74;100.00;98547.91;4882364;29;20618;-92
2023/03/28 05:58:34;;;;;;;0.95;0.95;;;;;;;3.70;100.00;98534.19;4864213;29;20155;-92
2023/03/28 06:01:17;;;;;;;0.90;0.90;;;;;;;3.93;100.00;98554.22;4880599;29;20063;-91
2023/03/28 06:03:50;;;;;;;0.90;0.90;;;;;;;4.13;100.00;98563.75;4902250;29;20143;-93
2023/03/28 06:06:18;;;;;;;0.85;0.85;;;;;;;4.34;100.00;98570.63;4886838;29;20058;-92
2023/03/28 06:08:46;;;;;;;0.90;0.90;;;;;;;4.46;100.00;98577.97;4873652;29;20054;-92
2023/03/28 06:11:14;;;;;;;0.90;0.90;;;;;;;4.62;100.00;98581.97;4901900;29;20241;-91
2023/03/28 06:14:05;;;;;;;0.90;0.90;;;;;;;4.62;100.00;98566.72;4905986;29;20064;-94
2023/03/28 06:16:35;;;;;;;0.90;0.90;;;;;;;4.80;98.13;98570.50;4870940;29;20116;-93
2023/03/28 06:19:05;;;;;;;0.75;0.75;;;;;;;4.94;95.88;98564.84;4888037;29;20068;-93
2023/03/28 06:21:48;;;;;;;0.90;0.90;;;;;;;5.19;93.73;98580.88;4875966;29;20159;-91
2023/03/28 06:24:15;;;;;;;0.90;0.90;;;;;;;5.27;91.90;98578.97;4934736;29;20538;-92
2023/03/28 06:26:44;;;;;;;0.90;0.90;;;;;;;5.46;90.69;98577.94;4885534;29;20091;-91
2023/03/28 06:29:15;;;;;;;0.90;0.90;;;;;;;5.61;89.07;98594.44;4899289;29;20208;-93
2023/03/28 06:31:46;;;;;;;0.80;0.80;;;;;;;5.60;87.36;98582.13;4859555;29;20496;-92
2023/03/28 06:34:17;;;;;;;0.80;0.80;;;;;;;5.64;85.10;98569.91;4868829;29;20053;-92
2023/03/28 06:36:56;;;;;;;0.88;0.88;;;;;;;5.70;84.12;98572.72;4868820;29;20155;-94
2023/03/28 06:39:28;;;;;;;0.80;0.80;;;;;;;5.76;83.05;98569.16;4901323;29;20056;-91
2023/03/28 06:42:02;;;;;;;0.90;0.90;;;;;;;5.89;82.02;98587.75;4885260;29;20055;-93
2023/03/28 06:44:41;;;;;;;0.90;0.90;;;;;;;5.92;80.17;98581.94;4886940;29;20511;-94
2023/03/28 06:47:29;;;;;;;0.90;0.90;;;;;;;6.03;79.46;98578.56;4902411;29;20059;-94
2023/03/28 06:49:57;;;;;;;0.90;0.90;;;;;;;6.13;79.25;98585.22;4871147;29;20565;-94
2023/03/28 06:52:46;;;;;;;0.80;0.80;;;;;;;6.16;78.50;98579.44;4893503;29;20056;-93
2023/03/28 06:55:15;;;;;;;0.80;0.80;;;;;;;6.19;78.15;98587.81;4875652;29;20068;-93
2023/03/28 06:57:43;;;;;;;0.80;0.80;;;;;;;6.23;77.41;98597.06;4860798;29;20051;-93
2023/03/28 07:00:19;;;;;;;0.80;0.80;;;;;;;6.23;77.03;98582.84;4878133;29;20100;-92
2023/03/28 07:03:18;;;;;;;0.80;0.80;;;;;;;6.25;76.13;98602.19;4896394;29;20052;-92
2023/03/28 07:05:45;;;;;;;0.90;0.90;;;;;;;6.29;75.68;98604.19;4898344;29;20052;-92
2023/03/28 07:08:41;;;;;;;0.85;0.85;;;;;;;6.34;75.58;98614.22;4889942;29;20052;-93
2023/03/28 07:11:10;;;;;;;0.90;0.90;;;;;;;6.38;75.73;98615.44;4866911;29;20054;-93
2023/03/28 07:13:43;;;;;;;0.90;0.90;;;;;;;6.30;74.09;98621.06;4908271;29;20063;-93
2023/03/28 07:16:15;;;;;;;0.90;0.90;;;;;;;6.10;74.32;98610.59;4877030;29;20101;-92
2023/03/28 07:18:43;;;;;;;0.90;0.90;;;;;;;6.18;74.59;98609.47;4901673;29;20056;-93
2023/03/28 07:21:20;;;;;;;0.82;0.82;;;;;;;6.38;73.95;98604.69;4858326;29;20371;-93
2023/03/28 07:23:47;;;;;;;0.90;0.90;;;;;;;6.53;72.97;98611.50;4858042;29;20048;-92
2023/03/28 07:26:18;;;;;;;0.80;0.80;;;;;;;6.45;71.60;98594.69;4890088;29;20507;-93
2023/03/28 07:28:46;;;;;;;0.80;0.80;;;;;;;6.75;71.30;98617.97;4890499;29;20060;-93
2023/03/28 07:31:14;;;;;;;0.90;0.90;;;;;;;6.88;70.44;98617.78;4875059;29;20119;-93
2023/03/28 07:33:42;;;;;;;0.88;0.88;;;;;;;7.01;68.90;98615.94;4905247;29;20116;-92
2023/03/28 07:36:15;;;;;;;0.90;0.90;;;;;;;6.94;67.51;98600.78;4904349;29;20079;-94
2023/03/28 07:38:48;;;;;;;0.90;0.90;;;;;;;7.14;66.51;98607.66;4905884;29;20066;-91
2023/03/28 07:41:21;;;;;;;0.90;0.90;;;;;;;7.25;66.82;98619.50;4907608;29;20058;-93
2023/03/28 07:43:49;;;;;;;0.90;0.90;;;;;;;7.22;66.91;98591.25;4892596;29;20478;-91
2023/03/28 07:46:19;;;;;;;0.90;0.90;;;;;;;7.60;65.94;98623.00;4875857;29;20446;-92
2023/03/28 07:48:48;;;;;;;0.80;0.80;;;;;;;7.65;64.61;98603.50;4875499;29;20181;-92
2023/03/28 07:51:17;;;;;;;0.80;0.80;;;;;;;7.66;63.88;98602.44;4888690;29;20076;-90
2023/03/28 07:53:46;;;;;;;0.90;0.90;;;;;;;7.67;63.30;98598.72;4906454;29;20139;-93
2023/03/28 07:56:14;;;;;;;0.80;0.80;;;;;;;7.68;62.34;98615.63;4890206;29;20130;-92
2023/03/28 07:59:00;;;;;;;0.90;0.90;;;;;;;7.49;62.67;98605.00;4889519;29;20123;-93
2023/03/28 08:01:28;;;;;;;0.80;0.80;;;;;;;7.56;63.10;98618.31;4874186;29;20052;-91
2023/03/28 08:04:02;;;;;;;0.80;0.80;;;;;;;7.63;63.24;98610.97;4906068;29;20063;-94
2023/03/28 08:06:57;;;;;;;0.80;0.80;;;;;;;7.76;63.40;98612.59;4913279;29;20063;-94
2023/03/28 08:09:31;;;;;;;0.80;0.80;;;;;;;7.88;62.21;98612.56;4894580;29;20073;-92
2023/03/28 08:12:22;;;;;;;0.80;0.80;;;;;;;8.12;61.54;98621.38;4892417;29;20056;-92
2023/03/28 08:14:49;;;;;;;0.80;0.80;;;;;;;8.12;61.18;98598.00;4881927;29;20052;-93
2023/03/28 08:17:27;;;;;;;0.80;0.80;;;;;;;8.11;60.59;98588.31;4879927;29;20116;-93
2023/03/28 08:19:55;;;;;;;0.80;0.80;;;;;;;8.01;60.10;98599.69;4862098;29;20048;-93
2023/03/28 08:22:26;;;;;;;0.80;0.80;;;;;;;8.07;60.14;98614.03;4876281;29;20150;-92
2023/03/28 08:25:15;;;;;;;0.70;0.70;;;;;;;8.01;60.42;98607.75;4904963;29;20227;-92
2023/03/28 08:27:43;;;;;;;0.80;0.80;;;;;;;7.96;59.97;98609.50;4920199;29;20423;-93
2023/03/28 08:30:13;;;;;;;0.80;0.80;;;;;;;8.03;59.51;98610.19;4888466;29;20056;-94
2023/03/28 08:32:50;;;;;;;0.80;0.80;;;;;;;8.13;59.70;98599.66;4903046;29;20067;-93
2023/03/28 08:35:32;;;;;;;0.80;0.80;;;;;;;8.11;59.33;98590.19;4861360;29;20067;-94
2023/03/28 08:38:10;;;;;;;0.90;0.90;;;;;;;8.30;58.34;98588.13;4888043;29;20142;-93
2023/03/28 08:41:00;;;;;;;0.88;0.88;;;;;;;8.77;57.96;98590.66;4886741;29;20059;-92
2023/03/28 08:43:58;;;;;;;0.90;0.90;;;;;;;8.97;57.38;98596.38;4889227;29;20056;-94
2023/03/28 08:46:53;;;;;;;0.90;0.90;;;;;;;9.41;56.59;98593.00;4903764;29;20060;-93
2023/03/28 08:49:25;;;;;;;0.80;0.80;;;;;;;9.23;55.01;98584.13;4874612;29;20064;-92
2023/03/28 08:52:01;;;;;;;0.80;0.80;;;;;;;8.84;55.93;98583.25;4889591;29;20059;-93
2023/03/28 08:54:40;;;;;;;0.80;0.80;;;;;;;8.82;55.79;98588.84;4888592;29;20078;-94
2023/03/28 08:57:15;;;;;;;0.90;0.90;;;;;;;9.03;56.20;98579.22;4888108;29;20048;-94
2023/03/28 09:00:08;;;;;;;0.80;0.80;;;;;;;9.37;55.91;98576.53;4889090;29;20044;-94
2023/03/28 09:02:37;;;;;;;0.80;0.80;;;;;;;9.32;54.85;98589.94;4904333;29;20075;-93
2023/03/28 09:05:08;;;;;;;0.82;0.82;;;;;;;9.09;55.08;98588.22;4874376;29;20328;-92
2023/03/28 09:08:16;;;;;;;0.80;0.80;;;;;;;9.31;55.71;98602.56;4876447;29;20063;-93
2023/03/28 09:11:14;;;;;;;0.80;0.80;;;;;;;9.03;55.36;98583.81;4906321;29;20076;-93
2023/03/28 09:13:48;;;;;;;0.80;0.80;;;;;;;9.20;55.70;98587.31;4920045;29;20056;-93
2023/03/28 09:16:52;;;;;;;0.90;0.90;;;;;;;9.75;54.89;98604.56;4902431;29;20147;-92
2023/03/28 09:19:42;;;;;;;0.80;0.80;;;;;;;10.11;54.12;98578.84;4871188;29;20067;-91
2023/03/28 09:22:45;;;;;;;0.82;0.82;;;;;;;10.40;52.97;98600.22;4900988;29;20070;-92
2023/03/28 09:25:55;;;;;;;0.80;0.80;;;;;;;10.52;52.00;98602.78;4872381;29;20083;-90
2023/03/28 09:28:46;;;;;;;0.82;0.82;;;;;;;10.96;50.97;98592.72;4896723;29;20060;-92
2023/03/28 09:31:18;;;;;;;1.00;1.00;;;;;;;12.10;48.26;98587.78;4856983;29;20059;-93
2023/03/28 09:33:48;;;;;;;1.00;1.00;;;;;;;12.94;45.88;98599.34;4871751;29;20177;-93
2023/03/28 09:36:33;;;;;;;1.00;1.00;;;;;;;13.28;43.92;98574.44;4888179;29;20048;-94
2023/03/28 09:39:39;;;;;;;0.90;0.90;;;;;;;13.41;43.80;98603.69;4893059;29;20052;-93
2023/03/28 09:42:24;;;;;;;0.70;0.70;;;;;;;13.02;43.76;98579.84;4888622;29;20059;-94
2023/03/28 09:45:46;;;;;;;0.75;0.75;;;;;;;12.66;44.42;98600.66;4826213;29;20121;-94
2023/03/28 09:48:42;;;;;;;0.80;0.80;;;;;;;12.48;45.08;98585.72;4827557;29;20057;-93
2023/03/28 09:51:17;;;;;;;0.80;0.80;;;;;;;12.78;45.02;98606.59;4843185;29;20087;-92
2023/03/28 09:53:47;;;;;;;0.70;0.70;;;;;;;12.71;43.93;98602.53;4842800;29;20101;-93
2023/03/28 09:56:29;;;;;;;0.70;0.70;;;;;;;12.25;43.80;98605.94;4492415;29;10000639;-92
2023/03/28 09:59:12;;;;;;;0.70;0.70;;;;;;;11.76;45.21;98594.59;4827884;29;20473;-90
2023/03/28 10:01:50;;;;;;;0.80;0.80;;;;;;;11.91;44.83;98605.53;4829145;29;20574;-90
2023/03/28 10:04:33;;;;;;;0.80;0.80;;;;;;;11.80;45.22;98571.34;4842306;29;20570;-91
2023/03/28 10:07:33;;;;;;;0.80;0.80;;;;;;;11.87;46.09;98599.00;4855847;29;20053;-91
2023/03/28 10:10:22;;;;;;;0.80;0.80;;;;;;;11.98;45.59;98606.09;4854275;29;20536;-89
2023/03/28 10:13:02;;;;;;;0.90;0.90;;;;;;;12.22;44.72;98595.66;4853884;29;20049;-88
2023/03/28 10:15:41;;;;;;;0.80;0.80;;;;;;;13.14;43.01;98579.56;4842610;29;20098;-90
2023/03/28 10:18:21;;;;;;;0.90;0.90;;;;;;;14.01;41.59;98597.59;4853931;29;20405;-89
2023/03/28 10:21:08;;;;;;;0.90;0.90;;;;;;;14.37;40.79;98597.44;4850204;29;20059;-89
2023/03/28 10:23:39;;;;;;;0.80;0.80;;;;;;;14.41;40.25;98584.94;4863134;29;20060;-91
2023/03/28 10:26:08;;;;;;;0.90;0.90;;;;;;;14.40;40.95;98594.97;4864590;29;20062;-93
2023/03/28 10:28:36;;;;;;;0.80;0.80;;;;;;;14.24;40.04;98572.53;4887609;29;20051;-93
2023/03/28 10:31:06;;;;;;;0.90;0.90;;;;;;;14.44;39.84;98593.34;4880218;29;20128;-90
2023/03/28 10:33:41;;;;;;;0.90;0.90;;;;;;;14.31;40.15;98588.53;4864646;29;20044;-92
2023/03/28 10:36:27;;;;;;;1.00;1.00;;;;;;;15.46;39.26;98586.34;4867223;29;20052;-92
2023/03/28 10:38:58;;;;;;;1.00;1.00;;;;;;;16.55;37.43;98594.94;4882631;29;20072;-95
2023/03/28 10:42:02;;;;;;;0.90;0.90;;;;;;;17.15;35.64;98581.53;4892355;29;20047;-89
2023/03/28 10:45:40;;;;;;;0.90;0.90;;;;;;;17.77;35.36;98590.25;4868341;29;20087;-95
2023/03/28 10:48:15;;;;;;;0.90;0.90;;;;;;;17.67;34.65;98576.78;4868573;29;20048;-92
2023/03/28 10:50:50;;;;;;;0.60;0.60;;;;;;;16.86;35.54;98558.00;4880683;29;20079;-91
2023/03/28 10:53:42;;;;;;;0.90;0.90;;;;;;;16.26;36.62;98587.69;4901206;29;20146;-93
2023/03/28 10:56:17;;;;;;;0.90;0.90;;;;;;;17.09;35.38;98594.44;4887292;29;20059;-93
2023/03/28 10:59:16;;;;;;;0.82;0.82;;;;;;;17.97;34.51;98582.78;4891984;29;20107;-92
2023/03/28 11:01:54;;;;;;;1.00;1.00;;;;;;;18.15;33.30;98576.44;4906429;29;20090;-92
2023/03/28 11:04:51;;;;;;;0.90;0.90;;;;;;;18.01;33.03;98572.88;4895636;29;20094;-92
2023/03/28 11:07:35;;;;;;;0.90;0.90;;;;;;;18.62;32.17;98578.97;4875033;29;20111;-91
2023/03/28 11:10:40;;;;;;;0.50;0.50;;;;;;;16.94;34.13;98582.94;4809269;29;20054;-93
2023/03/28 11:13:30;;;;;;;0.85;0.85;;;;;;;17.17;34.68;98573.06;4797072;29;20055;-92
2023/03/28 11:16:11;;;;;;;0.90;0.90;;;;;;;18.13;33.16;98564.19;4791883;29;20062;-91
2023/03/28 11:18:56;;;;;;;0.93;0.93;;;;;;;18.66;32.35;98582.72;4805798;29;20069;-92
2023/03/28 11:21:51;;;;;;;0.90;0.90;;;;;;;19.08;31.40;98577.13;4809910;29;20153;-92
2023/03/28 11:24:21;;;;;;;0.90;0.90;;;;;;;19.04;31.18;98571.44;4810004;29;20063;-92
2023/03/28 11:27:46;;;;;;;0.90;0.90;;;;;;;18.92;30.76;98550.16;4812172;29;20055;-93
2023/03/28 11:30:23;;;;;;;0.90;0.90;;;;;;;19.13;31.25;98560.59;4800797;29;20070;-93
2023/03/28 11:33:43;;;;;;;0.80;0.80;;;;;;;19.49;30.54;98555.00;4802142;29;20067;-93
2023/03/28 11:36:28;;;;;;;0.80;0.80;;;;;;;20.18;30.58;98559.16;4777192;30;20066;-90
2023/03/28 11:39:41;;;;;;;0.80;0.80;;;;;;;20.53;29.17;98552.63;4788694;30;20078;-93
2023/03/28 11:42:36;;;;;;;0.90;0.90;;;;;;;20.23;29.54;98553.53;4784466;30;20078;-92
2023/03/28 11:45:19;;;;;;;0.90;0.90;;;;;;;19.94;29.28;98537.66;4787757;30;20056;-92
2023/03/28 11:48:07;;;;;;;0.90;0.90;;;;;;;20.66;28.70;98539.91;4796579;29;20109;-91
2023/03/28 11:51:02;;;;;;;0.90;0.90;;;;;;;20.90;28.60;98553.13;4834463;29;20066;-92
2023/03/28 11:54:18;;;;;;;0.80;0.80;;;;;;;20.68;28.90;98545.88;4841137;29;20688;-91
2023/03/28 11:56:53;;;;;;;0.80;0.80;;;;;;;20.54;28.59;98536.97;4813905;29;20063;-91
2023/03/28 11:59:51;;;;;;;0.80;0.80;;;;;;;20.37;28.27;98545.97;4818449;29;20050;-91
2023/03/28 12:02:29;;;;;;;0.80;0.80;;;;;;;20.57;27.89;98533.63;4837205;29;20062;-93
2023/03/28 12:05:25;;;;;;;0.90;0.90;;;;;;;20.62;27.94;98533.47;4841635;29;20056;-93
2023/03/28 12:08:18;;;;;;;0.90;0.90;;;;;;;21.60;26.77;98520.09;4815151;29;20053;-91
2023/03/28 12:10:56;;;;;;;;;;;;;;;21.08;27.15;98531.97;4884757;29;20403;-92
2023/03/28 12:13:49;;;;;;;0.80;0.80;;;;;;;20.18;27.51;98535.31;4874427;29;19977;-91
2023/03/28 12:16:39;;;;;;;0.90;0.90;;;;;;;20.35;27.07;98532.59;4886926;29;20139;-90
2023/03/28 12:19:12;;;;;;;0.80;0.80;;;;;;;20.49;27.15;98537.13;4529488;29;10000248;-90
2023/03/28 12:21:48;;;;;;;0.80;0.80;;;;;;;20.78;26.85;98529.09;4873679;29;20085;-91
2023/03/28 12:24:32;;;;;;;0.80;0.80;;;;;;;21.48;26.48;98539.97;4876994;29;20423;-92
2023/03/28 12:27:49;;;;;;;0.80;0.80;;;;;;;20.93;26.54;98530.53;4880970;29;20056;-89
2023/03/28 12:30:39;;;;;;;0.80;0.80;;;;;;;20.95;26.37;98509.06;4862546;29;20152;-89
2023/03/28 12:33:26;;;;;;;0.80;0.80;;;;;;;21.11;26.19;98520.34;4841323;29;20865;-90
2023/03/28 12:36:17;;;;;;;0.80;0.80;;;;;;;21.42;26.06;98505.59;4825783;29;20046;-90